Monett, MO

4:30 AM CDT on July 22, 2017 (GMT -0500)
Monett

Weather History for KHFJ - March, 2014

Change the Weather History Date:

Wednesday, March 19, 2014

  Actual Average (KJLN) Record (KJLN)
Temperature  
Mean Temperature 43 °F -  
Max Temperature 51 °F 59 °F 89 °F (1912)
Min Temperature 35 °F 38 °F 13 °F (1965)
Degree Days  
Heating Degree Days 22    
Moisture  
Dew Point 32 °F    
Average Humidity 67    
Maximum Humidity 87    
Minimum Humidity 44    
Precipitation  
Precipitation 0.00 in - - ()
Sea Level Pressure  
Sea Level Pressure 30.04 in    
Wind  
Wind Speed 15 mph (West)    
Max Wind Speed 22 mph    
Max Gust Speed 29 mph    
Visibility 10 miles    
Events      
Averages and records for this station are not official NWS values.
T = Trace of Precipitation, MM = Missing Value Source: NWS Daily Summary

Daily Weather History Graph

Daily Weather History Graph

Search for Another Location

Airport or City:

Trip Planner

Search our weather history database for the weather conditions in past years. The results will help you decide how hot, cold, wet, or windy it might be!

Date:

Astronomy

Mar. 19, 2014 Rise Set
Actual Time 7:21 AM CDT 7:27 PM CDT
Civil Twilight 6:55 AM CDT 7:52 PM CDT
Nautical Twilight 6:25 AM CDT 8:23 PM CDT
Astronomical Twilight 5:54 AM CDT 8:53 PM CDT
Moon 10:40 PM CDT (3/19) 8:51 AM CDT (3/19)
Length of Visible Light 12h 57m
Length of Day
12h 05m
Waning Gibbous, 91% of the Moon is Illuminated
Mar 19
Waning Gibbous
Mar 23
Last Quarter
Mar 30
New
Apr 7
First Quarter
Apr 15
Full

Hourly Weather History & Observations

Time (CDT) Temp. Windchill Dew Point Humidity Pressure Visibility Wind Dir Wind Speed Gust Speed Precip Events Conditions
12:15 AM 50.0 °F - 37.4 °F 62% 29.74 in 10.0 mi WSW 20.7 mph 28.8 mph N/A   Clear
12:35 AM 46.4 °F 38.5 °F 35.6 °F 66% 29.74 in 10.0 mi WSW 21.9 mph 27.6 mph N/A   Clear
12:55 AM 46.4 °F 39.8 °F 35.6 °F 66% 29.76 in 10.0 mi West 16.1 mph 20.7 mph N/A   Clear
1:15 AM 44.6 °F 37.4 °F 35.6 °F 71% 29.77 in 10.0 mi West 16.1 mph 23.0 mph N/A   Scattered Clouds
1:35 AM 42.8 °F 35.1 °F 33.8 °F 70% 29.78 in 10.0 mi WSW 16.1 mph 24.2 mph N/A   Overcast
1:55 AM 41.0 °F 32.2 °F 32.0 °F 70% 29.79 in 10.0 mi WSW 18.4 mph 25.3 mph N/A   Overcast
2:15 AM 41.0 °F 32.5 °F 32.0 °F 70% 29.80 in 10.0 mi WSW 17.3 mph 21.9 mph N/A   Overcast
2:35 AM 41.0 °F 32.2 °F 32.0 °F 70% 29.81 in 10.0 mi WSW 18.4 mph - N/A   Overcast
2:55 AM 41.0 °F 32.2 °F 32.0 °F 70% 29.82 in 10.0 mi WSW 18.4 mph 25.3 mph N/A   Overcast
3:15 AM 41.0 °F 33.1 °F 32.0 °F 70% 29.82 in 10.0 mi West 15.0 mph 21.9 mph N/A   Overcast
3:35 AM 41.0 °F 31.6 °F 32.0 °F 70% 29.83 in 10.0 mi West 20.7 mph 24.2 mph N/A   Overcast
3:55 AM 41.0 °F 33.1 °F 32.0 °F 70% 29.84 in 10.0 mi West 15.0 mph 25.3 mph N/A   Overcast
4:15 AM 41.0 °F 31.9 °F 32.0 °F 70% 29.86 in 10.0 mi West 19.6 mph 28.8 mph N/A   Overcast
4:35 AM 39.2 °F 29.6 °F 32.0 °F 75% 29.87 in 10.0 mi West 19.6 mph 25.3 mph N/A   Overcast
4:55 AM 39.2 °F 29.6 °F 32.0 °F 75% 29.88 in 10.0 mi WNW 19.6 mph 25.3 mph N/A   Overcast
5:15 AM 37.4 °F 28.2 °F 32.0 °F 81% 29.89 in 10.0 mi WNW 16.1 mph 21.9 mph N/A   Overcast
5:35 AM 37.4 °F 28.9 °F 32.0 °F 81% 29.91 in 10.0 mi West 13.8 mph 20.7 mph N/A   Overcast
5:55 AM 37.4 °F 27.2 °F 32.0 °F 81% 29.92 in 10.0 mi WNW 19.6 mph 23.0 mph N/A   Overcast
6:15 AM 37.4 °F 27.2 °F 32.0 °F 81% 29.94 in 10.0 mi WNW 19.6 mph 27.6 mph N/A   Overcast
6:35 AM 37.4 °F 27.2 °F 32.0 °F 81% 29.95 in 10.0 mi WNW 19.6 mph - N/A   Overcast
6:55 AM 35.6 °F 25.9 °F 32.0 °F 87% 29.96 in 10.0 mi WNW 16.1 mph 24.2 mph N/A   Overcast
7:15 AM 35.6 °F 26.2 °F 32.0 °F 87% 29.98 in 10.0 mi NW 15.0 mph 18.4 mph N/A   Overcast
7:35 AM 35.6 °F 25.9 °F 32.0 °F 87% 30.00 in 10.0 mi WNW 16.1 mph 23.0 mph N/A   Overcast
7:55 AM 35.6 °F 25.9 °F 32.0 °F 87% 30.01 in 10.0 mi WNW 16.1 mph 24.2 mph N/A   Overcast
8:15 AM 35.6 °F 27.5 °F 32.0 °F 87% 30.02 in 10.0 mi NW 11.5 mph 20.7 mph N/A   Overcast
8:35 AM 35.6 °F 25.5 °F 30.2 °F 81% 30.04 in 10.0 mi NW 17.3 mph 23.0 mph N/A   Overcast
8:55 AM 35.6 °F 27.1 °F 30.2 °F 81% 30.04 in 10.0 mi WNW 12.7 mph 18.4 mph N/A   Overcast
9:15 AM 35.6 °F 25.9 °F 30.2 °F 81% 30.06 in 10.0 mi NW 16.1 mph - N/A   Overcast
9:35 AM 35.6 °F 25.9 °F 30.2 °F 81% 30.07 in 10.0 mi NW 16.1 mph - N/A   Overcast
9:55 AM 35.6 °F 25.9 °F 30.2 °F 81% 30.08 in 10.0 mi NW 16.1 mph - N/A   Overcast
10:15 AM 35.6 °F 25.5 °F 30.2 °F 81% 30.09 in 10.0 mi NW 17.3 mph 23.0 mph N/A   Overcast
10:35 AM 35.6 °F 27.5 °F 30.2 °F 81% 30.11 in 10.0 mi NW 11.5 mph - N/A   Overcast
10:55 AM 37.4 °F 30.3 °F 30.2 °F 75% 30.12 in 10.0 mi NW 10.4 mph 17.3 mph N/A   Overcast
11:15 AM 37.4 °F 30.3 °F 32.0 °F 81% 30.14 in 10.0 mi NW 10.4 mph - N/A   Overcast
11:35 AM 37.4 °F 29.3 °F 32.0 °F 81% 30.15 in 10.0 mi WNW 12.7 mph - N/A   Overcast
11:55 AM 37.4 °F 29.8 °F 32.0 °F 81% 30.15 in 10.0 mi WNW 11.5 mph - N/A   Overcast
12:15 PM 39.2 °F 31.6 °F 32.0 °F 75% 30.15 in 10.0 mi West 12.7 mph - N/A   Overcast
12:35 PM 41.0 °F 33.9 °F 32.0 °F 70% 30.15 in 10.0 mi WNW 12.7 mph - N/A   Overcast
12:55 PM 41.0 °F 32.8 °F 32.0 °F 70% 30.16 in 10.0 mi WNW 16.1 mph 20.7 mph N/A   Overcast
1:15 PM 41.0 °F 34.7 °F 32.0 °F 70% 30.16 in 10.0 mi West 10.4 mph 17.3 mph N/A   Mostly Cloudy
1:35 PM 42.8 °F 36.2 °F 32.0 °F 66% 30.15 in 10.0 mi West 12.7 mph - N/A   Mostly Cloudy
1:55 PM 42.8 °F 37.5 °F 32.0 °F 66% 30.15 in 10.0 mi West 9.2 mph - N/A   Scattered Clouds
2:15 PM 44.6 °F 38.8 °F 32.0 °F 61% 30.15 in 10.0 mi NW 11.5 mph - N/A   Clear
2:35 PM 46.4 °F 40.4 °F 32.0 °F 57% 30.14 in 10.0 mi WNW 13.8 mph - N/A   Clear
2:55 PM 48.2 °F - 32.0 °F 54% 30.13 in 10.0 mi West 10.4 mph - N/A   Clear
3:15 PM 50.0 °F - 32.0 °F 50% 30.12 in 10.0 mi WNW 8.1 mph 18.4 mph N/A   Clear
3:35 PM 50.0 °F - 32.0 °F 50% 30.12 in 10.0 mi West 15.0 mph 19.6 mph N/A   Clear
3:55 PM 51.8 °F - 32.0 °F 47% 30.12 in 10.0 mi NW 12.7 mph 17.3 mph N/A   Clear
4:15 PM 51.8 °F - 30.2 °F 44% 30.12 in 10.0 mi WNW 9.2 mph - N/A   Clear
4:35 PM 51.8 °F - 30.2 °F 44% 30.12 in 10.0 mi West 9.2 mph - N/A   Clear
4:55 PM 51.8 °F - 30.2 °F 44% 30.11 in 10.0 mi NW 9.2 mph - N/A   Clear
5:15 PM 51.8 °F - 30.2 °F 44% 30.11 in 10.0 mi WNW 10.4 mph - N/A   Clear
5:35 PM 51.8 °F - 30.2 °F 44% 30.11 in 10.0 mi West 13.8 mph 20.7 mph N/A   Clear
5:55 PM 51.8 °F - 30.2 °F 44% 30.11 in 10.0 mi NW 11.5 mph - N/A   Clear
6:15 PM 51.8 °F - 30.2 °F 44% 30.12 in 10.0 mi WNW 9.2 mph - N/A   Clear
6:35 PM 51.8 °F - 30.2 °F 44% 30.12 in 10.0 mi WNW 6.9 mph - N/A   Clear
6:55 PM 50.0 °F - 32.0 °F 50% 30.12 in 10.0 mi WNW 6.9 mph - N/A   Clear
7:15 PM 46.4 °F 43.5 °F 32.0 °F 57% 30.13 in 10.0 mi West 5.8 mph - N/A   Clear
7:35 PM 46.4 °F 43.5 °F 32.0 °F 57% 30.13 in 10.0 mi WNW 5.8 mph - N/A   Clear
7:55 PM 44.6 °F 42.2 °F 30.2 °F 57% 30.13 in 10.0 mi West 4.6 mph - N/A   Clear
8:15 PM 44.6 °F 41.4 °F 30.2 °F 57% 30.14 in 10.0 mi West 5.8 mph - N/A   Clear
8:35 PM 44.6 °F - 30.2 °F 57% 30.14 in 10.0 mi Calm Calm - N/A   Clear
8:55 PM 44.6 °F 43.1 °F 30.2 °F 57% 30.15 in 10.0 mi SW 3.5 mph - N/A   Clear
9:15 PM 42.8 °F 41.1 °F 30.2 °F 61% 30.15 in 10.0 mi WSW 3.5 mph - N/A   Clear
9:35 PM 42.8 °F - 30.2 °F 61% 30.16 in 10.0 mi Calm Calm - N/A   Clear
9:55 PM 41.0 °F 38.0 °F 30.2 °F 65% 30.17 in 10.0 mi SSW 4.6 mph - N/A   Clear
10:15 PM 41.0 °F 38.0 °F 30.2 °F 65% 30.17 in 10.0 mi SW 4.6 mph - N/A   Clear
10:35 PM 39.2 °F 35.9 °F 30.2 °F 70% 30.17 in 10.0 mi SSW 4.6 mph - N/A   Clear
10:55 PM 39.2 °F 35.9 °F 30.2 °F 70% 30.16 in 10.0 mi SSW 4.6 mph - N/A   Clear
11:15 PM 39.2 °F 35.9 °F 30.2 °F 70% 30.17 in 10.0 mi SSW 4.6 mph - N/A   Clear
11:35 PM 39.2 °F 35.9 °F 30.2 °F 70% 30.17 in 10.0 mi SSW 4.6 mph - N/A   Clear
11:55 PM 37.4 °F 33.8 °F 30.2 °F 75% 30.17 in 10.0 mi SSW 4.6 mph - N/A   Clear